New Century, Kansas
Current Conditions -  °F | °C
As of 11:53 AM on Friday 21 Nov 2014 (Local Time) from KIXD Reporting Station
Overcast Overcast  
Wind Chill: 34°   Ceiling: 1200
Heat Index: 41°   Visibility: 10mi
Dew Point: 29°   Wind: 13mph
Humidity: 62%   Direction: 130°SE
Pressure: 30.17"   Gusts: NA
Location:  38.81°N, 94.93°W
Report Text: KIXD 211753Z 13011KT 10SM OVC012 05/M02 A3017 RMK AO2 SLP225 T00501017 10050 21039 58014
Loading
Personal Weather Stations






























Interactive Weather Map New forecast layout! Learn more

10-Day Weather Forecast

Advertisements
Track Severe Weather on mobile